createdAt,value
2018-07-27T00:02:09.023Z,67.20
2018-07-27T00:04:37.704Z,66.20
2018-07-27T00:07:06.400Z,65.60
2018-07-27T00:09:35.036Z,65.40
2018-07-27T00:12:04.317Z,65.50
2018-07-27T00:14:32.976Z,66.50
2018-07-27T00:17:01.605Z,68.30
2018-07-27T00:19:30.296Z,69.30
2018-07-27T00:21:58.942Z,69.60
2018-07-27T00:24:27.907Z,69.90
2018-07-27T00:26:56.564Z,70.10
2018-07-27T00:29:25.240Z,70.40
2018-07-27T00:31:53.884Z,70.50
2018-07-27T00:34:24.216Z,70.80
2018-07-27T00:36:52.856Z,71.30
2018-07-27T00:39:21.468Z,71.60
2018-07-27T00:41:50.281Z,71.90
2018-07-27T00:44:18.976Z,72.10
2018-07-27T00:46:47.631Z,72.10
2018-07-27T00:49:16.258Z,71.30
2018-07-27T00:51:44.883Z,70.90
2018-07-27T00:54:13.476Z,70.40
2018-07-27T00:56:42.144Z,71.10
2018-07-27T00:59:10.812Z,70.70
2018-07-27T01:01:39.453Z,69.50
2018-07-27T01:04:08.229Z,69.70
2018-07-27T01:06:36.844Z,69.50
2018-07-27T01:09:08.360Z,69.70
2018-07-27T01:11:37.008Z,70.30
2018-07-27T01:14:05.972Z,71.00
2018-07-27T01:16:34.724Z,71.80
2018-07-27T01:19:03.923Z,72.40
2018-07-27T01:21:32.693Z,72.40
2018-07-27T01:24:01.354Z,72.40
2018-07-27T01:26:30.075Z,72.30
2018-07-27T01:28:58.700Z,70.90
2018-07-27T01:31:27.404Z,70.40
2018-07-27T01:33:56.045Z,71.10
2018-07-27T01:36:24.651Z,72.00
2018-07-27T01:38:53.275Z,73.60
2018-07-27T01:41:21.911Z,73.50
2018-07-27T01:43:50.551Z,74.20
2018-07-27T01:46:19.172Z,74.60
2018-07-27T01:48:47.839Z,74.10
2018-07-27T01:51:16.480Z,72.80
2018-07-27T01:53:45.135Z,74.00
2018-07-27T01:56:13.845Z,74.80
2018-07-27T01:58:43.347Z,75.20
2018-07-27T02:01:12.740Z,75.60
2018-07-27T02:03:41.390Z,75.60
2018-07-27T02:06:10.032Z,75.90
2018-07-27T02:08:38.686Z,75.80
2018-07-27T02:11:07.287Z,75.80
2018-07-27T02:13:36.005Z,76.10
2018-07-27T02:16:04.752Z,76.60
2018-07-27T02:18:33.441Z,76.60
2018-07-27T02:21:02.148Z,76.20
2018-07-27T02:23:31.054Z,75.00
2018-07-27T02:25:59.716Z,75.40
2018-07-27T02:28:28.311Z,76.10
2018-07-27T02:30:56.951Z,76.50
2018-07-27T02:33:25.828Z,77.00
2018-07-27T02:35:54.492Z,77.00
2018-07-27T02:38:23.171Z,77.10
2018-07-27T02:40:51.813Z,77.30
2018-07-27T02:43:20.488Z,77.50
2018-07-27T02:45:49.168Z,77.60
2018-07-27T02:48:17.776Z,77.30
2018-07-27T02:50:48.385Z,77.30
2018-07-27T02:53:17.672Z,77.30
2018-07-27T02:55:46.299Z,77.20
2018-07-27T02:58:14.959Z,76.80
2018-07-27T03:00:43.600Z,75.30
2018-07-27T03:03:12.591Z,74.30
2018-07-27T03:05:42.472Z,75.40
2018-07-27T03:08:11.111Z,76.40
2018-07-27T03:10:44.932Z,77.50
2018-07-27T03:13:13.539Z,77.00
2018-07-27T03:15:42.190Z,77.10
2018-07-27T03:18:10.824Z,76.80
2018-07-27T03:20:39.468Z,76.20
2018-07-27T03:23:08.092Z,76.10
2018-07-27T03:25:36.704Z,75.80
2018-07-27T03:28:05.379Z,76.10
2018-07-27T03:30:34.076Z,76.70
2018-07-27T03:33:02.694Z,77.10
2018-07-27T03:35:31.359Z,77.60
2018-07-27T03:37:59.975Z,77.70
2018-07-27T03:40:28.615Z,76.80
2018-07-27T03:42:57.256Z,76.20
2018-07-27T03:45:25.855Z,75.50
2018-07-27T03:47:54.464Z,75.00
2018-07-27T03:50:23.159Z,75.00
2018-07-27T03:52:51.810Z,75.70
2018-07-27T03:55:20.443Z,76.90
2018-07-27T03:57:49.096Z,78.00
2018-07-27T04:00:17.756Z,78.30
2018-07-27T04:02:46.426Z,78.80
2018-07-27T04:05:15.069Z,79.00
2018-07-27T04:07:43.712Z,79.50
2018-07-27T04:10:12.355Z,79.00
2018-07-27T04:12:42.139Z,78.90
2018-07-27T04:15:11.608Z,79.00
2018-07-27T04:17:44.599Z,78.60
2018-07-27T04:20:13.559Z,77.80
2018-07-27T04:22:42.191Z,77.20
2018-07-27T04:25:10.845Z,76.90
2018-07-27T04:27:39.464Z,77.40
2018-07-27T04:30:08.133Z,78.50
2018-07-27T04:32:36.799Z,78.80
2018-07-27T04:35:05.420Z,77.90
2018-07-27T04:37:34.039Z,77.50
2018-07-27T04:40:02.672Z,78.30
2018-07-27T04:42:31.329Z,79.10
2018-07-27T04:44:59.953Z,79.90
2018-07-27T04:47:28.600Z,80.20
2018-07-27T04:49:57.244Z,80.40
2018-07-27T04:52:25.864Z,80.70
2018-07-27T04:54:54.575Z,80.90
2018-07-27T04:57:23.219Z,81.00
2018-07-27T04:59:51.842Z,80.70
2018-07-27T05:02:20.474Z,79.40
2018-07-27T05:04:49.339Z,78.60
2018-07-27T05:07:18.031Z,79.00
2018-07-27T05:09:46.711Z,79.10
2018-07-27T05:12:15.336Z,78.60
2018-07-27T05:14:44.004Z,78.00
2018-07-27T05:17:12.695Z,77.30
2018-07-27T05:19:41.344Z,77.00
2018-07-27T05:22:10.014Z,76.70
2018-07-27T05:24:38.752Z,77.00
2018-07-27T05:27:07.420Z,77.50
2018-07-27T05:29:36.055Z,77.60
2018-07-27T05:32:04.699Z,77.90
2018-07-27T05:34:33.393Z,77.70
2018-07-27T05:37:02.054Z,78.00
2018-07-27T05:39:30.681Z,78.10
2018-07-27T05:41:59.349Z,78.10
2018-07-27T05:44:27.992Z,78.30
2018-07-27T05:46:56.853Z,78.80
2018-07-27T05:49:25.679Z,79.50
2018-07-27T05:54:22.582Z,78.40
2018-07-27T05:56:51.215Z,78.20
2018-07-27T05:59:19.889Z,78.00
2018-07-27T06:01:48.506Z,78.20
2018-07-27T06:06:45.455Z,77.70
2018-07-27T06:09:14.100Z,77.20
2018-07-27T06:11:42.756Z,76.60
2018-07-27T06:14:11.392Z,76.00
2018-07-27T06:16:40.080Z,74.30
2018-07-27T06:19:12.075Z,72.60
2018-07-27T06:24:09.996Z,69.90
2018-07-27T06:26:38.612Z,68.20
2018-07-27T06:29:07.353Z,67.10
2018-07-27T06:31:35.979Z,65.70
2018-07-27T06:34:19.638Z,64.60
2018-07-27T06:36:48.300Z,63.30
2018-07-27T06:39:17.013Z,62.20
2018-07-27T06:41:45.694Z,60.90
2018-07-27T06:44:14.367Z,59.60
2018-07-27T06:46:43.056Z,58.60
2018-07-27T06:49:11.884Z,57.80
2018-07-27T06:51:40.587Z,57.10
2018-07-27T06:54:09.213Z,56.20
2018-07-27T06:56:37.874Z,55.50
2018-07-27T06:59:06.662Z,54.80
2018-07-27T07:01:35.300Z,54.30
2018-07-27T07:04:03.948Z,53.60
2018-07-27T07:06:32.598Z,53.30
2018-07-27T07:09:01.282Z,52.80
2018-07-27T07:11:29.957Z,52.40
2018-07-27T07:13:58.636Z,51.70
2018-07-27T07:16:27.268Z,51.00
2018-07-27T07:18:55.924Z,50.50
2018-07-27T07:21:24.629Z,49.90
2018-07-27T07:23:53.268Z,50.00
2018-07-27T07:26:22.029Z,49.30
2018-07-27T07:28:50.676Z,48.80
2018-07-27T07:31:19.964Z,48.20
2018-07-27T07:33:48.845Z,48.00
2018-07-27T07:36:17.729Z,47.00
2018-07-27T07:38:46.565Z,46.70
2018-07-27T07:41:15.216Z,46.60
2018-07-27T07:43:43.902Z,46.40
2018-07-27T07:46:12.563Z,45.70
2018-07-27T07:48:41.193Z,45.90
2018-07-27T07:51:09.945Z,45.40
2018-07-27T07:53:38.588Z,44.80
2018-07-27T07:56:07.228Z,44.80
2018-07-27T07:58:35.947Z,44.40
2018-07-27T08:01:04.611Z,44.00
2018-07-27T08:03:33.231Z,43.50
2018-07-27T08:06:01.898Z,43.20
2018-07-27T08:08:30.560Z,42.30
2018-07-27T08:10:59.204Z,40.80
2018-07-27T08:15:56.103Z,39.40
2018-07-27T08:18:24.780Z,38.90
2018-07-27T08:20:53.410Z,39.30
2018-07-27T08:23:22.039Z,40.00
2018-07-27T08:26:57.815Z,40.40
2018-07-27T08:29:27.859Z,41.00
2018-07-27T08:31:56.965Z,41.30
2018-07-27T08:34:25.615Z,41.50
2018-07-27T08:36:54.316Z,41.60
2018-07-27T08:39:27.987Z,41.60
2018-07-27T08:41:56.759Z,41.40
2018-07-27T08:44:27.525Z,41.50
2018-07-27T08:46:56.217Z,42.00
2018-07-27T08:49:24.922Z,42.30
2018-07-27T08:51:53.555Z,41.90
2018-07-27T08:54:22.250Z,41.90
2018-07-27T08:56:50.949Z,41.40
2018-07-27T08:59:19.607Z,41.70
2018-07-27T09:01:48.261Z,41.80
2018-07-27T09:04:16.924Z,42.30
2018-07-27T09:06:45.591Z,42.40
2018-07-27T09:09:15.614Z,42.90
2018-07-27T09:11:44.299Z,42.80
2018-07-27T09:14:13.004Z,42.90
2018-07-27T09:16:41.647Z,43.20
2018-07-27T09:19:10.392Z,43.00
2018-07-27T09:21:39.182Z,42.40
2018-07-27T09:24:07.863Z,42.10
2018-07-27T09:26:36.505Z,42.20
2018-07-27T09:29:05.168Z,42.50
2018-07-27T09:31:33.846Z,41.90
2018-07-27T09:34:02.541Z,42.00
2018-07-27T09:36:31.183Z,41.30
2018-07-27T09:38:59.823Z,41.40
2018-07-27T09:41:28.453Z,41.00
2018-07-27T09:43:57.104Z,39.80
2018-07-27T09:46:25.832Z,39.00
2018-07-27T09:48:54.909Z,38.30
2018-07-27T09:51:24.586Z,38.10
2018-07-27T09:53:53.288Z,37.50
2018-07-27T09:56:21.952Z,38.10
2018-07-27T09:58:50.592Z,37.70
2018-07-27T10:01:28.330Z,37.90
2018-07-27T10:03:57.180Z,37.80
2018-07-27T10:06:25.830Z,37.10
2018-07-27T10:08:54.523Z,38.50
2018-07-27T10:11:23.224Z,37.80
2018-07-27T10:13:51.859Z,37.60
2018-07-27T10:16:20.536Z,38.10
2018-07-27T10:18:49.208Z,38.10
2018-07-27T10:21:17.841Z,38.40
2018-07-27T10:23:46.497Z,38.00
2018-07-27T10:26:15.138Z,37.20
2018-07-27T10:28:43.766Z,37.20
2018-07-27T10:31:12.506Z,37.90
2018-07-27T10:33:41.144Z,37.90
2018-07-27T10:36:09.841Z,37.80
2018-07-27T10:38:38.559Z,37.50
2018-07-27T10:41:07.389Z,37.00
2018-07-27T10:43:36.063Z,37.20
2018-07-27T10:46:05.523Z,37.40
2018-07-27T10:48:34.167Z,37.20
2018-07-27T10:51:02.829Z,37.30
2018-07-27T10:53:31.476Z,36.40
2018-07-27T10:56:00.108Z,36.10
2018-07-27T10:58:28.728Z,36.50
2018-07-27T11:00:57.384Z,36.10
2018-07-27T11:03:26.046Z,36.10
2018-07-27T11:05:54.845Z,36.50
2018-07-27T11:08:23.508Z,37.00
2018-07-27T11:10:52.151Z,37.20
2018-07-27T11:13:20.872Z,37.20
2018-07-27T11:15:49.496Z,37.90
2018-07-27T11:18:18.136Z,37.40
2018-07-27T11:20:46.807Z,37.00
2018-07-27T11:23:15.435Z,37.50
2018-07-27T11:25:44.069Z,37.80
2018-07-27T11:28:12.701Z,37.90
2018-07-27T11:30:41.312Z,37.90
2018-07-27T11:33:09.979Z,37.10
2018-07-27T11:35:38.621Z,36.50
2018-07-27T11:38:07.288Z,36.40
2018-07-27T11:40:36.107Z,36.10
2018-07-27T11:43:04.863Z,35.10
2018-07-27T11:45:33.498Z,34.80
2018-07-27T11:48:02.156Z,34.70
2018-07-27T11:50:30.876Z,34.10
2018-07-27T11:52:59.565Z,34.90
2018-07-27T11:55:28.249Z,35.30
2018-07-27T11:57:56.888Z,35.50
2018-07-27T12:00:25.680Z,35.50
2018-07-27T12:02:54.355Z,35.00
2018-07-27T12:05:23.008Z,35.20
2018-07-27T12:07:51.673Z,36.20
2018-07-27T12:10:20.325Z,37.30
2018-07-27T12:12:48.955Z,38.30
2018-07-27T12:15:17.721Z,38.90
2018-07-27T12:17:48.003Z,39.10
2018-07-27T12:20:16.661Z,39.50
2018-07-27T12:22:45.327Z,39.00
2018-07-27T12:25:13.978Z,39.10
2018-07-27T12:27:42.780Z,39.30
2018-07-27T12:30:11.989Z,39.40
2018-07-27T12:32:40.678Z,39.20
2018-07-27T12:35:09.379Z,39.00
2018-07-27T12:37:38.012Z,38.70
2018-07-27T12:40:06.678Z,38.40
2018-07-27T12:42:35.409Z,38.40
2018-07-27T12:45:04.273Z,38.60
2018-07-27T12:47:33.001Z,38.50
2018-07-27T12:50:01.632Z,38.30
2018-07-27T12:52:30.259Z,38.10
2018-07-27T12:54:58.957Z,37.70
2018-07-27T12:57:27.604Z,38.00
2018-07-27T12:59:56.236Z,38.30
2018-07-27T13:02:24.914Z,38.20
2018-07-27T13:04:53.594Z,38.70
2018-07-27T13:07:22.236Z,38.60
2018-07-27T13:09:55.280Z,39.20
2018-07-27T13:12:24.064Z,39.10
2018-07-27T13:14:52.755Z,39.30
2018-07-27T13:17:21.453Z,39.20
2018-07-27T13:19:50.081Z,39.20
2018-07-27T13:22:19.344Z,39.80
2018-07-27T13:27:16.714Z,40.70
2018-07-27T13:29:45.359Z,41.40
2018-07-27T13:32:14.056Z,41.90
2018-07-27T13:37:16.362Z,42.60
2018-07-27T13:39:45.853Z,42.70
2018-07-27T13:42:17.887Z,42.90
2018-07-27T13:44:46.952Z,42.90
2018-07-27T13:47:16.196Z,42.90
2018-07-27T13:49:44.894Z,42.60
2018-07-27T13:52:13.619Z,43.50
2018-07-27T13:54:42.286Z,43.00
2018-07-27T13:57:10.944Z,42.90
2018-07-27T13:59:39.638Z,43.10
2018-07-27T14:02:08.680Z,42.90
2018-07-27T14:04:37.423Z,43.10
2018-07-27T14:07:06.953Z,43.60
2018-07-27T14:09:35.599Z,43.60
2018-07-27T14:12:04.396Z,43.80
2018-07-27T14:14:33.099Z,43.40
2018-07-27T14:17:01.788Z,42.40
2018-07-27T14:19:31.336Z,42.50
2018-07-27T14:21:59.996Z,41.60
2018-07-27T14:24:28.661Z,41.50
2018-07-27T14:26:57.327Z,41.90
2018-07-27T14:29:25.976Z,42.90
2018-07-27T14:31:54.609Z,41.80
2018-07-27T14:34:23.264Z,41.70
2018-07-27T14:36:51.936Z,42.60
2018-07-27T14:39:20.577Z,43.10
2018-07-27T14:41:49.284Z,44.10
2018-07-27T14:44:17.929Z,44.70
2018-07-27T14:46:46.563Z,44.60
2018-07-27T14:49:16.367Z,44.60
2018-07-27T14:51:45.037Z,44.80
2018-07-27T14:54:14.553Z,44.30
2018-07-27T14:56:43.477Z,43.40
2018-07-27T14:59:12.372Z,44.00
2018-07-27T15:01:41.339Z,44.20
2018-07-27T15:04:10.621Z,44.00
2018-07-27T15:06:39.504Z,44.00
2018-07-27T15:09:13.735Z,43.80
2018-07-27T15:11:43.136Z,43.70
2018-07-27T15:14:11.745Z,43.80
2018-07-27T15:16:40.431Z,43.20
2018-07-27T15:19:09.055Z,43.20
2018-07-27T15:21:37.680Z,43.10
2018-07-27T15:24:06.356Z,42.50
2018-07-27T15:26:35.572Z,42.10
2018-07-27T15:29:04.364Z,41.50
2018-07-27T15:31:33.778Z,41.40
2018-07-27T15:34:02.395Z,41.00
2018-07-27T15:36:31.101Z,40.70
2018-07-27T15:38:59.748Z,40.00
2018-07-27T15:41:28.400Z,40.00
2018-07-27T15:43:57.015Z,39.20
2018-07-27T15:46:25.636Z,39.10
2018-07-27T15:48:54.234Z,38.60
2018-07-27T15:51:22.844Z,39.20
2018-07-27T15:53:51.458Z,39.90
2018-07-27T15:56:20.125Z,40.70
2018-07-27T15:58:48.820Z,40.70
2018-07-27T16:01:17.448Z,39.70
2018-07-27T16:03:46.297Z,40.40
2018-07-27T16:06:14.969Z,41.40
2018-07-27T16:08:43.654Z,41.20
2018-07-27T16:11:12.330Z,41.70
2018-07-27T16:13:40.975Z,42.10
2018-07-27T16:16:09.670Z,42.30
2018-07-27T16:18:38.276Z,42.60
2018-07-27T16:21:07.368Z,43.00
2018-07-27T16:23:35.975Z,43.40
2018-07-27T16:26:04.624Z,43.40
2018-07-27T16:28:33.274Z,42.90
2018-07-27T16:31:01.894Z,43.00
2018-07-27T16:33:30.495Z,43.00
2018-07-27T16:35:59.134Z,43.40
2018-07-27T16:38:27.792Z,43.20
2018-07-27T16:40:56.450Z,43.80
2018-07-27T16:43:25.088Z,43.60
2018-07-27T16:45:53.698Z,43.40
2018-07-27T16:48:22.308Z,43.70
2018-07-27T16:50:50.940Z,43.90
2018-07-27T16:53:19.553Z,43.60
2018-07-27T16:55:48.176Z,43.60
2018-07-27T16:58:16.812Z,44.00
2018-07-27T17:00:45.447Z,44.80
2018-07-27T17:03:14.081Z,45.30
2018-07-27T17:05:42.727Z,45.90
2018-07-27T17:08:11.356Z,46.60
2018-07-27T17:13:08.311Z,47.00
2018-07-27T17:15:36.916Z,47.40
2018-07-27T17:18:05.711Z,48.00
2018-07-27T17:20:34.340Z,47.70
2018-07-27T17:23:03.069Z,47.60
2018-07-27T17:25:31.764Z,47.50
2018-07-27T17:28:00.398Z,47.80
2018-07-27T17:30:29.031Z,48.10
2018-07-27T17:32:57.697Z,48.60
2018-07-27T17:35:26.404Z,48.80
2018-07-27T17:37:55.015Z,49.40
2018-07-27T17:40:23.680Z,50.10
2018-07-27T17:42:52.322Z,51.00
2018-07-27T17:45:20.956Z,51.40
2018-07-27T17:47:49.589Z,50.60
2018-07-27T17:50:18.238Z,50.10
2018-07-27T17:52:46.863Z,49.70
2018-07-27T17:57:43.804Z,50.10
2018-07-27T18:00:12.568Z,50.50
2018-07-27T18:02:41.212Z,51.00
2018-07-27T18:05:10.012Z,51.50
2018-07-27T18:07:38.668Z,51.50
2018-07-27T18:10:07.348Z,51.70
2018-07-27T18:12:36.001Z,52.00
2018-07-27T18:15:04.939Z,52.50
2018-07-27T18:17:33.548Z,52.70
2018-07-27T18:20:02.406Z,53.10
2018-07-27T18:22:31.090Z,53.20
2018-07-27T18:24:59.789Z,53.10
2018-07-27T18:27:28.536Z,53.10
2018-07-27T18:29:57.205Z,53.40
2018-07-27T18:32:25.878Z,53.80
2018-07-27T18:34:54.594Z,53.80
2018-07-27T18:37:23.256Z,53.80
2018-07-27T18:39:51.905Z,53.90
2018-07-27T18:42:20.547Z,54.10
2018-07-27T18:44:49.156Z,54.20
2018-07-27T18:47:17.803Z,54.60
2018-07-27T18:49:46.489Z,54.80
2018-07-27T18:52:15.144Z,55.20
2018-07-27T18:54:43.768Z,55.60
2018-07-27T18:57:12.401Z,56.10
2018-07-27T18:59:41.032Z,56.50
2018-07-27T19:02:09.728Z,57.00
2018-07-27T19:04:38.364Z,57.20
2018-07-27T19:07:09.138Z,57.50
2018-07-27T19:09:38.397Z,57.40
2018-07-27T19:12:07.076Z,57.70
2018-07-27T19:14:35.809Z,57.90
2018-07-27T19:17:04.445Z,58.40
2018-07-27T19:19:33.048Z,58.80
2018-07-27T19:22:01.719Z,59.40
2018-07-27T19:24:30.407Z,59.50
2018-07-27T19:26:59.064Z,59.80
2018-07-27T19:31:55.964Z,60.40
2018-07-27T19:34:25.525Z,60.90
2018-07-27T19:36:54.157Z,61.00
2018-07-27T19:39:22.755Z,61.30
2018-07-27T19:41:51.364Z,61.30
2018-07-27T19:44:20.041Z,61.60
2018-07-27T19:46:48.667Z,62.10
2018-07-27T19:49:17.269Z,62.80
2018-07-27T19:51:45.867Z,63.50
2018-07-27T19:54:14.494Z,64.40
2018-07-27T19:56:43.146Z,65.00
2018-07-27T19:59:11.788Z,65.60
2018-07-27T20:01:40.376Z,66.00
2018-07-27T20:04:09.000Z,66.40
2018-07-27T20:06:37.647Z,66.60
2018-07-27T20:09:08.483Z,67.20
2018-07-27T20:11:37.129Z,67.40
2018-07-27T20:14:05.797Z,67.60
2018-07-27T20:16:34.437Z,67.70
2018-07-27T20:19:03.040Z,68.10
2018-07-27T20:21:31.694Z,69.50
2018-07-27T20:24:00.441Z,69.30
2018-07-27T20:26:29.113Z,69.90
2018-07-27T20:28:57.811Z,70.50
2018-07-27T20:31:26.447Z,70.80
2018-07-27T20:33:55.455Z,71.10
2018-07-27T20:36:24.332Z,71.30
2018-07-27T20:38:52.939Z,71.80
2018-07-27T20:41:21.607Z,71.90
2018-07-27T20:43:50.227Z,72.20
2018-07-27T20:46:18.909Z,72.40
2018-07-27T20:48:47.628Z,72.70
2018-07-27T20:51:16.356Z,73.30
2018-07-27T20:53:44.992Z,73.40
2018-07-27T20:56:13.583Z,73.60
2018-07-27T20:58:42.220Z,73.60
2018-07-27T21:01:10.839Z,73.90
2018-07-27T21:03:39.456Z,73.80
2018-07-27T21:06:08.084Z,73.70
2018-07-27T21:08:36.711Z,73.50
2018-07-27T21:11:05.367Z,73.30
2018-07-27T21:13:33.977Z,72.40
2018-07-27T21:16:02.601Z,71.80
2018-07-27T21:18:31.204Z,71.80
2018-07-27T21:20:59.802Z,72.50
2018-07-27T21:23:28.400Z,73.00
2018-07-27T21:25:57.008Z,73.20
2018-07-27T21:28:25.627Z,73.40
2018-07-27T21:30:54.344Z,73.50
2018-07-27T21:33:22.959Z,73.70
2018-07-27T21:35:51.564Z,73.80
2018-07-27T21:38:20.156Z,73.80
2018-07-27T21:40:48.766Z,73.90
2018-07-27T21:43:17.438Z,74.20
2018-07-27T21:45:46.104Z,74.40
2018-07-27T21:48:14.688Z,74.50
2018-07-27T21:50:43.288Z,74.70
2018-07-27T21:53:11.905Z,74.60
2018-07-27T21:55:40.499Z,74.60
2018-07-27T21:58:09.128Z,74.70
2018-07-27T22:00:37.780Z,74.70
2018-07-27T22:03:06.504Z,74.70
2018-07-27T22:05:35.280Z,74.80
2018-07-27T22:08:04.025Z,75.20
2018-07-27T22:10:32.700Z,75.50
2018-07-27T22:13:01.339Z,75.90
2018-07-27T22:15:30.013Z,75.70
2018-07-27T22:17:58.651Z,75.60
2018-07-27T22:20:27.331Z,75.70
2018-07-27T22:22:55.972Z,75.80
2018-07-27T22:25:24.612Z,76.40
2018-07-27T22:27:53.208Z,76.70
2018-07-27T22:30:21.835Z,77.20
2018-07-27T22:32:50.504Z,77.60
2018-07-27T22:35:19.145Z,78.10
2018-07-27T22:37:47.763Z,78.40
2018-07-27T22:40:16.367Z,78.40
2018-07-27T22:42:44.993Z,78.30
2018-07-27T22:45:13.607Z,78.50
2018-07-27T22:47:42.212Z,78.50
2018-07-27T22:50:10.854Z,78.60
2018-07-27T22:52:40.541Z,78.40
2018-07-27T22:55:12.264Z,78.70
2018-07-27T22:57:41.887Z,79.40
2018-07-27T23:00:12.641Z,79.40
2018-07-27T23:02:41.808Z,79.20
2018-07-27T23:05:11.212Z,79.10
2018-07-27T23:07:39.837Z,79.00
2018-07-27T23:10:09.920Z,78.80
2018-07-27T23:12:38.697Z,78.90
2018-07-27T23:15:11.749Z,79.50
2018-07-27T23:17:40.672Z,79.80
2018-07-27T23:20:13.931Z,80.00
2018-07-27T23:22:43.409Z,80.40
2018-07-27T23:25:12.158Z,81.80
2018-07-27T23:27:43.749Z,81.30
2018-07-27T23:30:13.677Z,81.80
2018-07-27T23:32:45.459Z,82.30
2018-07-27T23:35:14.309Z,82.20
2018-07-27T23:37:43.313Z,83.20
2018-07-27T23:40:11.938Z,82.30
2018-07-27T23:42:41.424Z,82.80
2018-07-27T23:45:10.105Z,83.60
2018-07-27T23:47:38.832Z,83.80
2018-07-27T23:50:08.948Z,83.70
2018-07-27T23:52:37.655Z,83.70
2018-07-27T23:55:06.504Z,83.90
2018-07-27T23:57:35.851Z,83.70
